Darstellungsparameter: Aktuell verwendete Einstellungen:
Skalierung der Graphiken ... ?
xyx+y,   Skalierungsfaktor:      Skalierung: Modus: x, Faktor: 1
Darstellungszeitraum ... ?
Vom - - bis: - -   Zeitraum: 29.09.2005 - 29.09.2005
Min/Max/Avg-Anzeige ... ?
Zeige MMA aktuell
Zeige MMA Monat
Zeige MMA alles
Zeige --A aktuell
Zeige --A Monat
Zeige --A alles
Keine MMA-Anzeige
MMA:
Average (ber die Originaldaten)
MMA-Basis: 29.09.2005 - 29.09.2005
Quicknavigation für Darstellung... ?
Tage:      1T, 2T, 3T, 5T -1T -2T -3T -5T +1T +2T +3T +5T
Wochen: 1W, 2W, 3W -1W -2W -3W +1W +2W +3W
Monate: 1M, 3M, 6M -1M -3M -6M +1M +3M +6M
Jahre:    1J, 3J, 5J, 10J -1J -3J -5J -10J +1J +3J +5J +10J
Nutze für die Darstellung ... ?
Originaldaten oder Mittelwerte auf ...
Stundenbasis Tagesbasis Wochenbasis
Monatsbasis Jahresbasis      Datenbasis: Original-Daten
Darstellen als:
Statistik (Auto) Statistik J:M      Darstellung:
Zur Graphik,    zurück zur Übersicht aller Sensoren.
 
Tabellarische Datenbersicht: ?
 
Sensor: Nr:Datum:Temp:Abs-Feuchte:Windchill:Wind:
Aussen-T/F 1 29-09-2005 00:04:02 13.2 C 8.5 g/m*3 13.2 C 0 km/h
2 29-09-2005 00:09:03 13.1 C 8.56 g/m*3 13.1 C 0 km/h
3 29-09-2005 00:14:03 13.2 C 8.61 g/m*3 13.2 C 0 km/h
4 29-09-2005 00:19:03 13.2 C 8.61 g/m*3 13.2 C 0 km/h
5 29-09-2005 00:24:03 13.2 C 8.61 g/m*3 13.2 C 0 km/h
6 29-09-2005 00:29:03 13 C 8.62 g/m*3 13 C 0 km/h
7 29-09-2005 00:34:02 12.8 C 8.85 g/m*3 12.8 C 0 km/h
8 29-09-2005 00:39:02 12.8 C 8.96 g/m*3 12.8 C 0 km/h
9 29-09-2005 00:44:03 12.6 C 9.07 g/m*3 12.6 C 0 km/h
10 29-09-2005 00:49:02 12.4 C 9.07 g/m*3 12.4 C 0 km/h
11 29-09-2005 00:54:02 12.3 C 9.12 g/m*3 12.3 C 0 km/h
12 29-09-2005 00:59:02 12.3 C 9.12 g/m*3 12.3 C 0 km/h
13 29-09-2005 01:04:02 12.2 C 9.17 g/m*3 12.2 C 0 km/h
14 29-09-2005 01:09:02 12.1 C 9.01 g/m*3 12.1 C 0 km/h
15 29-09-2005 01:14:02 12.1 C 9.01 g/m*3 12.1 C 0 km/h
16 29-09-2005 01:19:02 12.1 C 9.01 g/m*3 12.1 C 0 km/h
17 29-09-2005 01:24:02 12 C 9.06 g/m*3 12 C 0 km/h
18 29-09-2005 01:29:02 12 C 9.17 g/m*3 12 C 0 km/h
19 29-09-2005 01:34:02 12 C 9.17 g/m*3 12 C 0 km/h
20 29-09-2005 01:39:02 12 C 9.27 g/m*3 12 C 0 km/h
21 29-09-2005 01:44:02 12 C 9.27 g/m*3 12 C 0 km/h
22 29-09-2005 01:49:03 12 C 9.27 g/m*3 12 C 0 km/h
23 29-09-2005 01:54:03 11.9 C 9.32 g/m*3 11.9 C 0 km/h
24 29-09-2005 01:59:03 11.7 C 9.2 g/m*3 11.7 C 0 km/h
25 29-09-2005 02:04:03 11.7 C 9.2 g/m*3 11.7 C 0 km/h
Sensor: Nr:Datum:Temp:Abs-Feuchte:Windchill:Wind:
Aussen-T/F 26 29-09-2005 02:09:03 11.7 C 9.31 g/m*3 11.7 C 0 km/h
27 29-09-2005 02:14:03 11.6 C 9.25 g/m*3 11.6 C 0 km/h
28 29-09-2005 02:19:02 11.6 C 9.25 g/m*3 11.6 C 0 km/h
29 29-09-2005 02:24:02 11.6 C 9.35 g/m*3 11.6 C 0 km/h
30 29-09-2005 02:29:02 11.7 C 9.41 g/m*3 11.7 C 0 km/h
31 29-09-2005 02:34:02 11.7 C 9.41 g/m*3 11.7 C 0 km/h
32 29-09-2005 02:39:02 11.6 C 9.35 g/m*3 11.6 C 0 km/h
33 29-09-2005 02:44:02 11.7 C 9.41 g/m*3 11.7 C 0 km/h
34 29-09-2005 02:50:03 11.6 C 9.35 g/m*3 11.6 C 0 km/h
35 29-09-2005 02:55:03 11.6 C 9.35 g/m*3 11.6 C 0 km/h
36 29-09-2005 03:00:04 11.5 C 9.3 g/m*3 11.5 C 0 km/h
37 29-09-2005 03:05:04 11.5 C 9.3 g/m*3 11.5 C 0 km/h
38 29-09-2005 03:10:03 11.5 C 9.19 g/m*3 11.5 C 0 km/h
39 29-09-2005 03:15:03 11.4 C 9.14 g/m*3 11.4 C 0 km/h
40 29-09-2005 03:20:03 11.4 C 9.03 g/m*3 11.4 C 0 km/h
41 29-09-2005 03:25:03 11.4 C 8.93 g/m*3 11.4 C 0 km/h
42 29-09-2005 03:30:03 11.4 C 8.93 g/m*3 11.4 C 0 km/h
43 29-09-2005 03:35:02 11.4 C 8.83 g/m*3 11.4 C 0 km/h
44 29-09-2005 03:40:02 11.4 C 8.72 g/m*3 11.4 C 0 km/h
45 29-09-2005 03:45:02 11.3 C 8.67 g/m*3 11.3 C 0 km/h
46 29-09-2005 03:50:02 11.2 C 8.72 g/m*3 11.2 C 0 km/h
47 29-09-2005 03:55:02 11.1 C 8.66 g/m*3 11.1 C 0 km/h
48 29-09-2005 04:00:02 11 C 8.61 g/m*3 11 C 0 km/h
49 29-09-2005 04:05:02 11 C 8.61 g/m*3 11 C 0 km/h
50 29-09-2005 04:10:02 10.9 C 8.55 g/m*3 10.9 C 0 km/h
Sensor: Nr:Datum:Temp:Abs-Feuchte:Windchill:Wind:
Aussen-T/F 51 29-09-2005 04:15:02 10.8 C 8.5 g/m*3 10.8 C 0 km/h
52 29-09-2005 04:20:02 10.8 C 8.4 g/m*3 10.8 C 0 km/h
53 29-09-2005 04:25:02 10.7 C 8.45 g/m*3 10.7 C 0 km/h
54 29-09-2005 04:30:02 10.7 C 8.55 g/m*3 10.7 C 0 km/h
55 29-09-2005 04:35:02 10.8 C 8.6 g/m*3 10.8 C 0 km/h
56 29-09-2005 04:40:02 10.8 C 8.6 g/m*3 10.8 C 0 km/h
57 29-09-2005 04:45:02 10.8 C 8.5 g/m*3 10.8 C 0 km/h
58 29-09-2005 04:50:02 10.8 C 8.6 g/m*3 10.8 C 0 km/h
59 29-09-2005 04:55:02 10.9 C 8.65 g/m*3 10.9 C 0 km/h
60 29-09-2005 05:00:02 10.8 C 8.6 g/m*3 10.8 C 0 km/h
61 29-09-2005 05:05:02 10.9 C 8.65 g/m*3 10.9 C 0 km/h
62 29-09-2005 05:10:02 10.8 C 8.6 g/m*3 10.8 C 0 km/h
63 29-09-2005 05:15:02 10.9 C 8.75 g/m*3 10.9 C 0 km/h
64 29-09-2005 05:20:02 10.8 C 8.7 g/m*3 10.8 C 0 km/h
65 29-09-2005 05:25:02 10.9 C 8.75 g/m*3 10.9 C 0 km/h
66 29-09-2005 05:30:02 10.8 C 8.7 g/m*3 10.8 C 0 km/h
67 29-09-2005 05:35:02 10.8 C 8.7 g/m*3 10.8 C 0 km/h
68 29-09-2005 05:40:02 10.8 C 8.7 g/m*3 10.8 C 0 km/h
69 29-09-2005 05:45:02 10.9 C 8.75 g/m*3 10.9 C 0 km/h
70 29-09-2005 05:50:02 10.9 C 8.85 g/m*3 10.9 C 0 km/h
71 29-09-2005 05:55:02 10.9 C 8.85 g/m*3 10.9 C 0 km/h
72 29-09-2005 06:00:02 10.9 C 8.85 g/m*3 10.9 C 0 km/h
73 29-09-2005 06:05:02 11 C 8.81 g/m*3 11 C 0 km/h
74 29-09-2005 06:10:03 11 C 8.81 g/m*3 11 C 0 km/h
75 29-09-2005 06:15:02 11 C 8.81 g/m*3 11 C 0 km/h
Sensor: Nr:Datum:Temp:Abs-Feuchte:Windchill:Wind:
Aussen-T/F 76 29-09-2005 06:20:02 10.9 C 8.85 g/m*3 10.9 C 0 km/h
77 29-09-2005 06:25:02 10.8 C 8.8 g/m*3 10.8 C 0 km/h
78 29-09-2005 06:30:02 10.8 C 8.8 g/m*3 10.8 C 0 km/h
79 29-09-2005 06:35:02 10.8 C 8.8 g/m*3 10.8 C 0 km/h
80 29-09-2005 06:40:02 10.8 C 8.8 g/m*3 10.8 C 0 km/h
81 29-09-2005 06:45:02 10.8 C 8.8 g/m*3 10.8 C 0 km/h
82 29-09-2005 06:50:02 10.8 C 8.8 g/m*3 10.8 C 0 km/h
83 29-09-2005 06:55:02 10.9 C 8.85 g/m*3 10.9 C 0 km/h
84 29-09-2005 07:00:02 10.9 C 8.85 g/m*3 10.9 C 0 km/h
85 29-09-2005 07:05:02 10.9 C 8.85 g/m*3 10.9 C 0 km/h
86 29-09-2005 07:10:02 11 C 8.81 g/m*3 11 C 0 km/h
87 29-09-2005 07:15:02 11.1 C 8.76 g/m*3 11.1 C 0 km/h
88 29-09-2005 07:20:02 11.1 C 8.76 g/m*3 11.1 C 0 km/h
89 29-09-2005 07:25:02 11.1 C 8.66 g/m*3 11.1 C 0 km/h
90 29-09-2005 07:30:02 11.2 C 8.72 g/m*3 11.2 C 0 km/h
91 29-09-2005 07:35:02 11.4 C 8.62 g/m*3 11.4 C 0 km/h
92 29-09-2005 07:40:02 11.7 C 8.58 g/m*3 11.7 C 0 km/h
93 29-09-2005 07:45:02 11.7 C 8.58 g/m*3 11.7 C 0 km/h
94 29-09-2005 07:50:02 11.8 C 8.42 g/m*3 11.8 C 0 km/h
95 29-09-2005 07:55:02 11.8 C 8.53 g/m*3 11.8 C 0 km/h
96 29-09-2005 08:00:02 11.9 C 8.37 g/m*3 11.9 C 0 km/h
97 29-09-2005 08:05:02 12.1 C 8.15 g/m*3 12.1 C 0 km/h
98 29-09-2005 08:10:02 12.3 C 8.14 g/m*3 12.3 C 0 km/h
99 29-09-2005 08:15:01 12.2 C 8.09 g/m*3 12.2 C 0 km/h
100 29-09-2005 08:20:01 12 C 8.31 g/m*3 12 C 0 km/h
Sensor: Nr:Datum:Temp:Abs-Feuchte:Windchill:Wind:
Aussen-T/F 101 29-09-2005 08:25:01 11.8 C 8.31 g/m*3 11.8 C 0 km/h
102 29-09-2005 08:30:01 11.7 C 8.37 g/m*3 11.7 C 0 km/h
103 29-09-2005 08:35:01 11.5 C 8.57 g/m*3 11.5 C 0 km/h
104 29-09-2005 08:40:01 11.5 C 8.57 g/m*3 11.5 C 0 km/h
105 29-09-2005 08:45:01 11.5 C 8.57 g/m*3 11.5 C 0 km/h
106 29-09-2005 08:50:01 11.5 C 8.68 g/m*3 11.5 C 0 km/h
107 29-09-2005 08:55:01 11.4 C 8.62 g/m*3 11.4 C 0 km/h
108 29-09-2005 09:00:02 11.4 C 8.72 g/m*3 11.4 C 0 km/h
109 29-09-2005 09:05:01 11.4 C 8.72 g/m*3 11.4 C 0 km/h
110 29-09-2005 09:10:01 11.4 C 8.72 g/m*3 11.4 C 0 km/h
111 29-09-2005 09:15:01 11.4 C 8.72 g/m*3 11.4 C 0 km/h
112 29-09-2005 09:20:01 11.3 C 8.77 g/m*3 11.3 C 0 km/h
113 29-09-2005 09:25:01 11.3 C 8.87 g/m*3 11.3 C 0 km/h
114 29-09-2005 09:30:01 11.3 C 8.87 g/m*3 11.3 C 0 km/h
115 29-09-2005 09:35:02 11.3 C 8.98 g/m*3 11.3 C 0 km/h
116 29-09-2005 09:40:02 11.4 C 9.03 g/m*3 11.4 C 0 km/h
117 29-09-2005 09:45:02 11.4 C 8.93 g/m*3 11.4 C 0 km/h
118 29-09-2005 09:50:02 11.4 C 8.93 g/m*3 11.4 C 0 km/h
119 29-09-2005 09:55:02 11.5 C 8.88 g/m*3 11.5 C 0 km/h
120 29-09-2005 10:00:02 11.5 C 8.99 g/m*3 11.5 C 0 km/h
121 29-09-2005 10:05:02 11.6 C 9.04 g/m*3 11.6 C 0 km/h
122 29-09-2005 10:10:02 11.5 C 8.88 g/m*3 11.5 C 0 km/h
123 29-09-2005 10:15:02 11.7 C 8.99 g/m*3 11.7 C 0 km/h
124 29-09-2005 10:20:02 11.7 C 8.99 g/m*3 11.7 C 0 km/h
125 29-09-2005 10:25:02 11.8 C 9.05 g/m*3 11.8 C 0 km/h
Sensor: Nr:Datum:Temp:Abs-Feuchte:Windchill:Wind:
Aussen-T/F 126 29-09-2005 10:30:02 11.9 C 9.11 g/m*3 11.9 C 0 km/h
127 29-09-2005 10:35:02 11.9 C 9.11 g/m*3 11.9 C 0 km/h
128 29-09-2005 10:40:02 12 C 9.17 g/m*3 12 C 0 km/h
129 29-09-2005 10:45:02 12 C 9.06 g/m*3 12 C 0 km/h
130 29-09-2005 10:50:02 12 C 9.17 g/m*3 12 C 0 km/h
131 29-09-2005 10:55:02 12.1 C 9.12 g/m*3 12.1 C 0 km/h
132 29-09-2005 11:00:03 12.1 C 9.12 g/m*3 12.1 C 0 km/h
133 29-09-2005 11:05:01 12.2 C 9.28 g/m*3 12.2 C 0 km/h
134 29-09-2005 11:10:01 12.1 C 9.22 g/m*3 12.1 C 0 km/h
135 29-09-2005 11:15:01 12 C 9.27 g/m*3 12 C 0 km/h
136 29-09-2005 11:20:01 12 C 9.27 g/m*3 12 C 0 km/h
137 29-09-2005 11:25:01 11.9 C 9.43 g/m*3 11.9 C 0 km/h
138 29-09-2005 11:30:01 12 C 9.48 g/m*3 12 C 0 km/h
139 29-09-2005 11:35:02 12.2 C 9.71 g/m*3 12.2 C 0 km/h
140 29-09-2005 11:40:02 12.3 C 9.77 g/m*3 12.3 C 0 km/h
141 29-09-2005 11:45:02 12.4 C 9.83 g/m*3 12.4 C 0 km/h
142 29-09-2005 11:50:02 12.5 C 9.78 g/m*3 12.5 C 0 km/h
143 29-09-2005 11:55:02 12.6 C 9.85 g/m*3 12.6 C 0 km/h
144 29-09-2005 12:00:03 12.5 C 9.78 g/m*3 12.5 C 0 km/h
145 29-09-2005 12:05:02 12.7 C 9.91 g/m*3 12.7 C 0 km/h
146 29-09-2005 12:10:02 13.3 C 10.17 g/m*3 13.3 C 0 km/h
147 29-09-2005 12:15:02 13.4 C 10 g/m*3 13.4 C 0 km/h
148 29-09-2005 12:20:02 13.7 C 9.95 g/m*3 13.7 C 0 km/h
149 29-09-2005 12:25:02 13.7 C 9.83 g/m*3 13.7 C 0 km/h
150 29-09-2005 12:30:02 13.7 C 9.59 g/m*3 13.7 C 0 km/h
Sensor: Nr:Datum:Temp:Abs-Feuchte:Windchill:Wind:
Aussen-T/F 151 29-09-2005 12:35:02 13.5 C 8.66 g/m*3 13.5 C 0 km/h
152 29-09-2005 12:40:02 13.5 C 8.54 g/m*3 13.5 C 0 km/h
153 29-09-2005 12:45:02 13.9 C 8.87 g/m*3 13.9 C 0 km/h
154 29-09-2005 12:50:02 14.2 C 9.04 g/m*3 14.2 C 0 km/h
155 29-09-2005 12:55:02 14.4 C 8.53 g/m*3 14.4 C 0 km/h
156 29-09-2005 13:00:03 14.1 C 8.37 g/m*3 14.1 C 0 km/h
157 29-09-2005 13:05:02 14 C 8.44 g/m*3 14 C 0 km/h
158 29-09-2005 13:10:02 13.6 C 8.36 g/m*3 13.6 C 0 km/h
159 29-09-2005 13:15:02 13.6 C 8.24 g/m*3 13.6 C 0 km/h
160 29-09-2005 13:20:02 13.7 C 8.17 g/m*3 13.7 C 0 km/h
161 29-09-2005 13:25:02 13.9 C 8.27 g/m*3 13.9 C 0 km/h
162 29-09-2005 13:30:02 14 C 8.32 g/m*3 14 C 0 km/h
163 29-09-2005 13:35:02 14.4 C 8.41 g/m*3 14.4 C 0 km/h
164 29-09-2005 13:40:02 15.1 C 8.13 g/m*3 15.1 C 0 km/h
165 29-09-2005 13:45:01 15.4 C 8.28 g/m*3 15.4 C 0 km/h
166 29-09-2005 13:50:01 15.5 C 7.93 g/m*3 15.5 C 0 km/h
167 29-09-2005 13:55:01 15.7 C 7.76 g/m*3 15.7 C 0 km/h
168 29-09-2005 14:00:02 15.9 C 7.04 g/m*3 15.9 C 0 km/h
169 29-09-2005 14:05:01 16 C 6.81 g/m*3 16 C 0 km/h
170 29-09-2005 14:10:01 16 C 6.81 g/m*3 16 C 0 km/h
171 29-09-2005 14:15:01 16.2 C 6.9 g/m*3 16.2 C 0 km/h
172 29-09-2005 14:20:01 16.2 C 6.48 g/m*3 16.2 C 0 km/h
173 29-09-2005 14:25:01 16.2 C 6.34 g/m*3 16.2 C 0 km/h
174 29-09-2005 14:30:01 16.2 C 6.07 g/m*3 16.2 C 0 km/h
175 29-09-2005 14:35:02 16.3 C 5.97 g/m*3 16.3 C 0 km/h
Sensor: Nr:Datum:Temp:Abs-Feuchte:Windchill:Wind:
Aussen-T/F 176 29-09-2005 14:40:02 16.7 C 6.4 g/m*3 16.7 C 0 km/h
177 29-09-2005 14:45:02 16.7 C 6.11 g/m*3 16.7 C 0 km/h
178 29-09-2005 14:50:03 16.8 C 6.29 g/m*3 16.8 C 0 km/h
179 29-09-2005 14:55:03 17 C 6.08 g/m*3 17 C 0 km/h
180 29-09-2005 15:00:03 17 C 5.93 g/m*3 17 C 0 km/h
181 29-09-2005 15:05:02 17.4 C 5.63 g/m*3 17.4 C 0 km/h
182 29-09-2005 15:10:02 17.2 C 5.27 g/m*3 17.2 C 0 km/h
183 29-09-2005 15:15:02 17.6 C 5.55 g/m*3 17.6 C 0 km/h
184 29-09-2005 15:20:02 17.6 C 5.55 g/m*3 17.6 C 0 km/h
185 29-09-2005 15:25:02 18 C 5.53 g/m*3 18 C 0 km/h
186 29-09-2005 15:30:02 17.9 C 5.5 g/m*3 17.9 C 0 km/h
187 29-09-2005 15:35:02 17.8 C 5.62 g/m*3 17.8 C 0 km/h
188 29-09-2005 15:40:02 18 C 5.68 g/m*3 18 C 0 km/h
189 29-09-2005 15:45:02 18.1 C 5.72 g/m*3 18.1 C 0 km/h
190 29-09-2005 15:50:02 17.8 C 5.62 g/m*3 17.8 C 0 km/h
191 29-09-2005 15:55:02 17.5 C 5.67 g/m*3 17.5 C 0 km/h
192 29-09-2005 16:00:03 16.9 C 5.75 g/m*3 16.9 C 0 km/h
193 29-09-2005 16:05:02 16.5 C 5.76 g/m*3 16.5 C 0 km/h
194 29-09-2005 16:10:02 16.2 C 5.93 g/m*3 16.2 C 0 km/h
195 29-09-2005 16:15:01 16.7 C 5.68 g/m*3 16.7 C 0 km/h
196 29-09-2005 16:20:01 16.8 C 5.72 g/m*3 16.8 C 0 km/h
197 29-09-2005 16:25:01 16.4 C 5.3 g/m*3 16.4 C 0 km/h
198 29-09-2005 16:30:01 17 C 5.35 g/m*3 17 C 0 km/h
199 29-09-2005 16:35:02 17.1 C 5.39 g/m*3 17.1 C 0 km/h
200 29-09-2005 16:40:02 16.8 C 5.29 g/m*3 16.8 C 0 km/h
Sensor: Nr:Datum:Temp:Abs-Feuchte:Windchill:Wind:
Aussen-T/F 201 29-09-2005 16:45:02 17 C 5.5 g/m*3 17 C 0 km/h
202 29-09-2005 16:50:02 17.2 C 5.71 g/m*3 17.2 C 0 km/h
203 29-09-2005 16:55:02 17.2 C 5.71 g/m*3 17.2 C 0 km/h
204 29-09-2005 17:00:02 17.2 C 5.71 g/m*3 17.2 C 0 km/h
205 29-09-2005 17:05:02 17 C 5.64 g/m*3 17 C 0 km/h
206 29-09-2005 17:10:02 16.7 C 5.26 g/m*3 16.7 C 0 km/h
207 29-09-2005 17:15:02 16.6 C 5.23 g/m*3 16.6 C 0 km/h
208 29-09-2005 17:20:03 16.6 C 5.37 g/m*3 16.6 C 0 km/h
209 29-09-2005 17:25:03 16.8 C 5.43 g/m*3 16.8 C 0 km/h
210 29-09-2005 17:30:03 16.9 C 5.32 g/m*3 16.9 C 0 km/h
211 29-09-2005 17:35:01 16.7 C 5.26 g/m*3 16.7 C 0 km/h
212 29-09-2005 17:40:01 17 C 5.21 g/m*3 17 C 0 km/h
213 29-09-2005 17:45:02 16.7 C 5.26 g/m*3 16.7 C 0 km/h
214 29-09-2005 17:50:02 16.4 C 5.16 g/m*3 16.4 C 0 km/h
215 29-09-2005 17:55:02 16 C 5.04 g/m*3 16 C 0 km/h
216 29-09-2005 18:00:02 15.8 C 5.12 g/m*3 15.8 C 0 km/h
217 29-09-2005 18:05:02 15.4 C 5.12 g/m*3 15.4 C 0 km/h
218 29-09-2005 18:10:02 15.5 C 5.29 g/m*3 15.5 C 0 km/h
219 29-09-2005 18:15:02 15.7 C 5.35 g/m*3 15.7 C 0 km/h
220 29-09-2005 18:20:02 15.7 C 5.49 g/m*3 15.7 C 0 km/h
221 29-09-2005 18:25:02 15.3 C 5.48 g/m*3 15.3 C 0 km/h
222 29-09-2005 18:30:02 15.2 C 5.58 g/m*3 15.2 C 0 km/h
223 29-09-2005 18:35:02 14.8 C 5.7 g/m*3 14.8 C 0 km/h
224 29-09-2005 18:40:02 14.6 C 5.76 g/m*3 14.6 C 0 km/h
225 29-09-2005 18:45:02 14.4 C 5.69 g/m*3 14.4 C 0 km/h
Sensor: Nr:Datum:Temp:Abs-Feuchte:Windchill:Wind:
Aussen-T/F 226 29-09-2005 18:50:02 14.3 C 5.65 g/m*3 14.3 C 0 km/h
227 29-09-2005 18:55:02 14.2 C 5.62 g/m*3 14.2 C 0 km/h
228 29-09-2005 19:00:03 14 C 5.67 g/m*3 14 C 0 km/h
229 29-09-2005 19:05:02 14 C 5.67 g/m*3 14 C 0 km/h
230 29-09-2005 19:10:02 13.8 C 5.84 g/m*3 13.8 C 0 km/h
231 29-09-2005 19:15:02 13.8 C 5.84 g/m*3 13.8 C 0 km/h
232 29-09-2005 19:20:02 13.7 C 5.8 g/m*3 13.7 C 0 km/h
233 29-09-2005 19:25:02 13.6 C 5.88 g/m*3 13.6 C 0 km/h
234 29-09-2005 19:30:02 13.5 C 5.85 g/m*3 13.5 C 0 km/h
235 29-09-2005 19:35:02 13.5 C 5.97 g/m*3 13.5 C 0 km/h
236 29-09-2005 19:40:02 13.3 C 6.01 g/m*3 13.3 C 0 km/h
237 29-09-2005 19:45:02 13.1 C 6.16 g/m*3 13.1 C 0 km/h
238 29-09-2005 19:50:02 12.9 C 6.31 g/m*3 12.9 C 0 km/h
239 29-09-2005 19:55:03 12.8 C 6.38 g/m*3 12.8 C 0 km/h
240 29-09-2005 20:00:03 12.6 C 6.42 g/m*3 12.6 C 0 km/h
241 29-09-2005 20:05:01 13 C 6.35 g/m*3 13 C 0 km/h
242 29-09-2005 20:10:01 12.7 C 6.46 g/m*3 12.7 C 0 km/h
243 29-09-2005 20:15:01 12.7 C 6.35 g/m*3 12.7 C 0 km/h
244 29-09-2005 20:20:01 12.6 C 6.42 g/m*3 12.6 C 0 km/h
245 29-09-2005 20:25:01 12.5 C 6.49 g/m*3 12.5 C 0 km/h
246 29-09-2005 20:30:01 12.3 C 6.52 g/m*3 12.3 C 0 km/h
247 29-09-2005 20:35:02 12 C 6.5 g/m*3 12 C 0 km/h
248 29-09-2005 20:40:02 11.9 C 6.67 g/m*3 11.9 C 0 km/h
249 29-09-2005 20:45:03 11.8 C 6.74 g/m*3 11.8 C 0 km/h
250 29-09-2005 20:50:03 11.7 C 6.69 g/m*3 11.7 C 0 km/h
Sensor: Nr:Datum:Temp:Abs-Feuchte:Windchill:Wind:
Aussen-T/F 251 29-09-2005 20:55:03 11.6 C 6.76 g/m*3 11.6 C 0 km/h
252 29-09-2005 21:00:03 11.6 C 6.76 g/m*3 11.6 C 0 km/h
253 29-09-2005 21:05:02 11.7 C 6.8 g/m*3 11.7 C 0 km/h
254 29-09-2005 21:10:02 11.7 C 6.69 g/m*3 11.7 C 0 km/h
255 29-09-2005 21:15:03 11.7 C 6.8 g/m*3 11.7 C 0 km/h
256 29-09-2005 21:20:03 11.6 C 6.65 g/m*3 11.6 C 0 km/h
257 29-09-2005 21:25:03 11.6 C 6.76 g/m*3 11.6 C 0 km/h
258 29-09-2005 21:30:03 11.6 C 6.76 g/m*3 11.6 C 0 km/h
259 29-09-2005 21:35:02 11.6 C 6.76 g/m*3 11.6 C 0 km/h
260 29-09-2005 21:40:02 11.6 C 6.76 g/m*3 11.6 C 0 km/h
261 29-09-2005 21:45:02 11.6 C 6.76 g/m*3 11.6 C 0 km/h
262 29-09-2005 21:50:02 11.7 C 6.8 g/m*3 11.7 C 0 km/h
263 29-09-2005 21:55:02 11.7 C 6.69 g/m*3 11.7 C 0 km/h
264 29-09-2005 22:00:02 11.6 C 6.76 g/m*3 11.6 C 0 km/h
265 29-09-2005 22:05:02 11.5 C 6.82 g/m*3 11.5 C 0 km/h
266 29-09-2005 22:10:02 11.4 C 6.77 g/m*3 11.4 C 0 km/h
267 29-09-2005 22:15:01 11.4 C 6.77 g/m*3 11.4 C 0 km/h
268 29-09-2005 22:20:01 11.4 C 6.77 g/m*3 11.4 C 0 km/h
269 29-09-2005 22:25:01 11.4 C 6.77 g/m*3 11.4 C 0 km/h
270 29-09-2005 22:30:01 11.6 C 6.86 g/m*3 11.6 C 0 km/h
271 29-09-2005 22:35:01 11.6 C 6.86 g/m*3 11.6 C 0 km/h
272 29-09-2005 22:40:01 11.6 C 6.86 g/m*3 11.6 C 0 km/h
273 29-09-2005 22:45:02 11.5 C 6.82 g/m*3 11.5 C 0 km/h
274 29-09-2005 22:50:02 11.5 C 6.92 g/m*3 11.5 C 0 km/h
275 29-09-2005 22:55:02 11.5 C 6.92 g/m*3 11.5 C 0 km/h
Sensor: Nr:Datum:Temp:Abs-Feuchte:Windchill:Wind:
Aussen-T/F 276 29-09-2005 23:00:03 11.6 C 6.96 g/m*3 11.6 C 0 km/h
277 29-09-2005 23:05:01 11.6 C 6.96 g/m*3 11.6 C 0 km/h
278 29-09-2005 23:10:01 11.5 C 7.02 g/m*3 11.5 C 0 km/h
279 29-09-2005 23:15:01 11.4 C 7.19 g/m*3 11.4 C 0 km/h
280 29-09-2005 23:20:01 11.3 C 7.24 g/m*3 11.3 C 0 km/h
281 29-09-2005 23:25:01 11.3 C 7.24 g/m*3 11.3 C 0 km/h
282 29-09-2005 23:30:01 11.4 C 7.19 g/m*3 11.4 C 0 km/h
283 29-09-2005 23:35:02 11.4 C 7.08 g/m*3 11.4 C 0 km/h
284 29-09-2005 23:40:02 11.4 C 7.08 g/m*3 11.4 C 0 km/h
285 29-09-2005 23:45:02 11.4 C 6.98 g/m*3 11.4 C 0 km/h
286 29-09-2005 23:50:02 11.3 C 7.04 g/m*3 11.3 C 0 km/h
287 29-09-2005 23:55:02 11.2 C 6.99 g/m*3 11.2 C 0 km/h

Legende:
   Min
   Max


Maximal/Minimal-Werte vom 29.09.2005 - 29.09.2005

Sensor Min Max Avg
Temp
(Aussen-T/F)
10.7 °C
29-09-2005  04:25:02
18.1 °C
29-09-2005  15:45:02
12.91 °C
Abs-Feuchte
(Aussen-T/F)
5.04 g/m*3
29-09-2005  17:55:02
10.17 g/m*3
29-09-2005  12:10:02
7.72 g/m*3
Windchill
(Aussen-T/F)
10.7 C
29-09-2005  04:25:02
18.1 C
29-09-2005  15:45:02
12.87 C

Die Daten stammen von einer Davis Vantage Pro 2 Wetter-Station und werden unter Linux mit der Software wview2wettercgi und aufbereitet. Alle Angaben erfolgen ohne Gewähr für ihre Vollständigkeit oder Richtigkeit.
Kontakt: Rainer Krienke krienke@uni-koblenz.de . Meine Webseiten an der Uni Koblenz oder privat.
Version: $Revision: 0.78 $